Eviapetrol II — SY6858 — position and weather

sailwx.info

Track history (hours):
 
Tides and Currents Weather Stations Pressure Air Temp Water Temp Dewpoint Dewpoint Depression Visibility Wind Speed Wind Dir Waves Ship Positions

Eviapetrol II

Last reported at 2014-Sep-30 20:31 UTC. Time now 2014-Oct-01 22:20 UTC.
Position N 36°37' E 026°44'.

Length 78 m; draft 4.7 m.

Type: Tanker. MMSI: 240493000.

Date/timePositionNaut miles runAvg speedWind from/ knotsBaromVisibWave heightAir tempDewpointWater temp
2014-Sep-30 20:31N 36°37' E 026°44'9 9.5
2014-Sep-30 19:33N 36°42' E 026°33'12 9.6
2014-Sep-30 18:17N 36°48' E 026°20'6 8.9
2014-Sep-30 17:33N 36°48' E 026°12'10 9.2
2014-Sep-30 16:29N 36°47' E 026°00'9 9.5
2014-Sep-30 15:33N 36°45' E 025°49'9 8.6
2014-Sep-30 14:33N 36°45' E 025°39'9 8.9
2014-Sep-30 13:34N 36°47' E 025°28'9 9.1
2014-Sep-30 12:33N 36°50' E 025°17'9 8.9
2014-Sep-30 11:33N 36°53' E 025°06'9 9.3
2014-Sep-30 10:33N 36°56' E 024°56'9 8.9
2014-Sep-30 09:33N 37°02' E 024°47'8 8.2
2014-Sep-30 08:33N 37°04' E 024°37'9 8.8
2014-Sep-30 07:33N 37°06' E 024°26'13 9.7
2014-Sep-30 06:13N 37°18' E 024°18'810.2
2014-Sep-30 05:23N 37°25' E 024°13'8 9.2
2014-Sep-30 04:33N 37°32' E 024°09'12 0.3
2014-Sep-28 11:28N 37°38' E 023°56'8 8.8
2014-Sep-28 10:33N 37°38' E 023°45'9 9.2
2014-Sep-28 09:33N 37°39' E 023°34'10 9.5
2014-Sep-28 08:33N 37°40' E 023°22'9 9.1
2014-Sep-28 07:33N 37°46' E 023°14'10 9.5
2014-Sep-28 06:30N 37°54' E 023°06'6 0.3
2014-Sep-27 11:13N 37°49' E 023°11'6 9.1
2014-Sep-27 10:33N 37°44' E 023°15'9 8.7
2014-Sep-27 09:32N 37°39' E 023°25'10 9.9
2014-Sep-27 08:33N 37°39' E 023°37'13 9.7
2014-Sep-27 07:12N 37°38' E 023°53'18 9.0
2014-Sep-27 05:10N 37°47' E 024°13'  
2014-Sep-24 13:21N 37°37' E 023°56'7 8.9
2014-Sep-24 12:33N 37°39' E 023°47'8 8.3
2014-Sep-24 11:33N 37°44' E 023°40'9 9.4
2014-Sep-24 10:33N 37°53' E 023°36'8 7.7
2014-Sep-24 09:33N 38°01' E 023°33'1 0.1
2014-Sep-23 21:12N 38°02' E 023°33'2 0.6
2014-Sep-23 17:23N 38°02' E 023°36'0 0.0
2014-Sep-23 16:32N 38°02' E 023°36'0 0.0
2014-Sep-23 15:29N 38°02' E 023°36'0 0.0
2014-Sep-23 14:11N 38°02' E 023°36'0 0.0
2014-Sep-23 13:23N 38°02' E 023°36'0 0.0
2014-Sep-23 12:32N 38°02' E 023°36'0 0.0
2014-Sep-23 11:32N 38°02' E 023°36'0 0.0
2014-Sep-23 10:32N 38°02' E 023°36'1 1.2
2014-Sep-23 09:32N 38°02' E 023°34'2 1.4
2014-Sep-23 08:24N 38°02' E 023°32'0 0.0
2014-Sep-23 07:09N 38°02' E 023°32'0 0.0
2014-Sep-23 02:11N 38°02' E 023°32'0 0.1
2014-Sep-23 01:22N 38°02' E 023°32'0 0.0
2014-Sep-22 23:04N 38°02' E 023°32'0 0.0
2014-Sep-22 20:31N 38°02' E 023°32'0 0.0
2014-Sep-22 19:18N 38°02' E 023°32'0 0.0
2014-Sep-22 12:22N 38°02' E 023°32'0 0.0
2014-Sep-22 11:33N 38°02' E 023°32'0 0.0
2014-Sep-22 10:33N 38°02' E 023°32'0 0.0
2014-Sep-22 09:31N 38°02' E 023°32'0 0.0
2014-Sep-22 08:33N 38°02' E 023°32'0 0.0
2014-Sep-21 22:23N 38°02' E 023°32'0 0.0
2014-Sep-21 21:30N 38°02' E 023°32'0 0.0
2014-Sep-21 18:33N 38°02' E 023°32'0 0.0
2014-Sep-21 17:31N 38°02' E 023°32'0 0.0
2014-Sep-21 16:05N 38°02' E 023°32'0 0.0
2014-Sep-21 14:22N 38°02' E 023°32'0 0.0
2014-Sep-21 11:15N 38°02' E 023°32'0 0.0
2014-Sep-21 07:07N 38°02' E 023°32'0 0.0
2014-Sep-21 05:33N 38°02' E 023°32'0 0.0
2014-Sep-21 03:03N 38°02' E 023°32'0 0.0
2014-Sep-21 00:18N 38°02' E 023°32'0 0.0
2014-Sep-20 21:25N 38°02' E 023°32'0 0.0
2014-Sep-20 20:33N 38°02' E 023°32'  
Track history (hours):
 
Tides and Currents Weather Stations Pressure Air Temp Water Temp Dewpoint Dewpoint Depression Visibility Wind Speed Wind Dir Waves Ship Positions

Eviapetrol II

Last reported at 2014-Sep-30 20:31 UTC. Time now 2014-Oct-01 22:20 UTC.
Position N 36°37' E 026°44'.

Length 78 m; draft 4.7 m.

Type: Tanker. MMSI: 240493000.

Date/timePositionNaut miles runAvg speedWind from/ knotsBaromVisibWave heightAir tempDewpointWater temp
2014-Sep-30 20:31N 36°37' E 026°44'9 9.5
2014-Sep-30 19:33N 36°42' E 026°33'12 9.6
2014-Sep-30 18:17N 36°48' E 026°20'6 8.9
2014-Sep-30 17:33N 36°48' E 026°12'10 9.2
2014-Sep-30 16:29N 36°47' E 026°00'9 9.5
2014-Sep-30 15:33N 36°45' E 025°49'9 8.6
2014-Sep-30 14:33N 36°45' E 025°39'9 8.9
2014-Sep-30 13:34N 36°47' E 025°28'9 9.1
2014-Sep-30 12:33N 36°50' E 025°17'9 8.9
2014-Sep-30 11:33N 36°53' E 025°06'9 9.3
2014-Sep-30 10:33N 36°56' E 024°56'9 8.9
2014-Sep-30 09:33N 37°02' E 024°47'8 8.2
2014-Sep-30 08:33N 37°04' E 024°37'9 8.8
2014-Sep-30 07:33N 37°06' E 024°26'13 9.7
2014-Sep-30 06:13N 37°18' E 024°18'810.2
2014-Sep-30 05:23N 37°25' E 024°13'8 9.2
2014-Sep-30 04:33N 37°32' E 024°09'12 0.3
2014-Sep-28 11:28N 37°38' E 023°56'8 8.8
2014-Sep-28 10:33N 37°38' E 023°45'9 9.2
2014-Sep-28 09:33N 37°39' E 023°34'10 9.5
2014-Sep-28 08:33N 37°40' E 023°22'9 9.1
2014-Sep-28 07:33N 37°46' E 023°14'10 9.5
2014-Sep-28 06:30N 37°54' E 023°06'6 0.3
2014-Sep-27 11:13N 37°49' E 023°11'6 9.1
2014-Sep-27 10:33N 37°44' E 023°15'9 8.7
2014-Sep-27 09:32N 37°39' E 023°25'10 9.9
2014-Sep-27 08:33N 37°39' E 023°37'13 9.7
2014-Sep-27 07:12N 37°38' E 023°53'18 9.0
2014-Sep-27 05:10N 37°47' E 024°13'  
2014-Sep-24 13:21N 37°37' E 023°56'7 8.9
2014-Sep-24 12:33N 37°39' E 023°47'8 8.3
2014-Sep-24 11:33N 37°44' E 023°40'9 9.4
2014-Sep-24 10:33N 37°53' E 023°36'8 7.7
2014-Sep-24 09:33N 38°01' E 023°33'1 0.1
2014-Sep-23 21:12N 38°02' E 023°33'2 0.6
2014-Sep-23 17:23N 38°02' E 023°36'0 0.0
2014-Sep-23 16:32N 38°02' E 023°36'0 0.0
2014-Sep-23 15:29N 38°02' E 023°36'0 0.0
2014-Sep-23 14:11N 38°02' E 023°36'0 0.0
2014-Sep-23 13:23N 38°02' E 023°36'0 0.0
2014-Sep-23 12:32N 38°02' E 023°36'0 0.0
2014-Sep-23 11:32N 38°02' E 023°36'0 0.0
2014-Sep-23 10:32N 38°02' E 023°36'1 1.2
2014-Sep-23 09:32N 38°02' E 023°34'2 1.4
2014-Sep-23 08:24N 38°02' E 023°32'0 0.0
2014-Sep-23 07:09N 38°02' E 023°32'0 0.0
2014-Sep-23 02:11N 38°02' E 023°32'0 0.1
2014-Sep-23 01:22N 38°02' E 023°32'0 0.0
2014-Sep-22 23:04N 38°02' E 023°32'0 0.0
2014-Sep-22 20:31N 38°02' E 023°32'0 0.0
2014-Sep-22 19:18N 38°02' E 023°32'0 0.0
2014-Sep-22 12:22N 38°02' E 023°32'0 0.0
2014-Sep-22 11:33N 38°02' E 023°32'0 0.0
2014-Sep-22 10:33N 38°02' E 023°32'0 0.0
2014-Sep-22 09:31N 38°02' E 023°32'0 0.0
2014-Sep-22 08:33N 38°02' E 023°32'0 0.0
2014-Sep-21 22:23N 38°02' E 023°32'0 0.0
2014-Sep-21 21:30N 38°02' E 023°32'0 0.0
2014-Sep-21 18:33N 38°02' E 023°32'0 0.0
2014-Sep-21 17:31N 38°02' E 023°32'0 0.0
2014-Sep-21 16:05N 38°02' E 023°32'0 0.0
2014-Sep-21 14:22N 38°02' E 023°32'0 0.0
2014-Sep-21 11:15N 38°02' E 023°32'0 0.0
2014-Sep-21 07:07N 38°02' E 023°32'0 0.0
2014-Sep-21 05:33N 38°02' E 023°32'0 0.0
2014-Sep-21 03:03N 38°02' E 023°32'0 0.0
2014-Sep-21 00:18N 38°02' E 023°32'0 0.0
2014-Sep-20 21:25N 38°02' E 023°32'0 0.0
2014-Sep-20 20:33N 38°02' E 023°32'  

Dump ship's entire track history